createdAt,value
2019-03-22T00:01:30.687Z,11.37
2019-03-22T00:04:01.874Z,13.63
2019-03-22T00:06:32.822Z,11.20
2019-03-22T00:09:04.403Z,11.53
2019-03-22T00:11:35.439Z,11.97
2019-03-22T00:14:06.359Z,12.20
2019-03-22T00:16:37.242Z,12.13
2019-03-22T00:19:08.136Z,11.60
2019-03-22T00:21:39.068Z,10.00
2019-03-22T00:24:10.260Z,10.53
2019-03-22T00:26:41.129Z,10.77
2019-03-22T00:29:12.048Z,11.40
2019-03-22T00:31:42.957Z,12.47
2019-03-22T00:34:13.878Z,11.20
2019-03-22T00:36:44.715Z,12.70
2019-03-22T00:39:15.861Z,11.10
2019-03-22T00:41:48.353Z,9.87
2019-03-22T00:44:19.332Z,9.53
2019-03-22T00:46:50.189Z,9.37
2019-03-22T00:49:21.190Z,8.87
2019-03-22T00:51:52.136Z,7.83
2019-03-22T00:54:23.215Z,7.60
2019-03-22T00:56:54.194Z,7.53
2019-03-22T00:59:25.061Z,7.37
2019-03-22T01:01:56.027Z,7.00
2019-03-22T01:04:26.975Z,7.77
2019-03-22T01:06:58.007Z,8.30
2019-03-22T01:09:28.956Z,8.37
2019-03-22T01:12:00.023Z,7.57
2019-03-22T01:14:30.931Z,6.70
2019-03-22T01:17:01.910Z,6.47
2019-03-22T01:19:32.913Z,8.23
2019-03-22T01:22:04.000Z,7.97
2019-03-22T01:24:34.966Z,6.90
2019-03-22T01:27:05.919Z,6.40
2019-03-22T01:29:36.934Z,6.37
2019-03-22T01:32:07.896Z,5.67
2019-03-22T01:34:39.048Z,5.90
2019-03-22T01:37:10.023Z,5.60
2019-03-22T01:39:40.937Z,5.27
2019-03-22T01:42:11.976Z,5.60
2019-03-22T01:44:42.962Z,6.13
2019-03-22T01:47:14.024Z,5.70
2019-03-22T01:49:45.089Z,6.23
2019-03-22T01:52:16.112Z,6.27
2019-03-22T01:54:47.148Z,5.97
2019-03-22T01:57:18.038Z,6.10
2019-03-22T01:59:48.912Z,6.03
2019-03-22T02:02:19.925Z,6.07
2019-03-22T02:04:50.773Z,5.70
2019-03-22T02:07:21.774Z,5.70
2019-03-22T02:09:52.826Z,6.50
2019-03-22T02:12:23.750Z,6.60
2019-03-22T02:14:54.727Z,6.10
2019-03-22T02:17:25.739Z,6.13
2019-03-22T02:19:56.803Z,6.33
2019-03-22T02:22:27.852Z,7.33
2019-03-22T02:24:58.716Z,6.33
2019-03-22T02:27:29.802Z,6.60
2019-03-22T02:30:00.779Z,6.30
2019-03-22T02:32:31.743Z,5.80
2019-03-22T02:35:02.759Z,6.60
2019-03-22T02:37:33.695Z,6.13
2019-03-22T02:40:07.232Z,6.37
2019-03-22T02:42:38.214Z,5.80
2019-03-22T02:45:11.650Z,5.93
2019-03-22T02:47:42.676Z,5.73
2019-03-22T02:50:18.630Z,5.70
2019-03-22T02:52:47.330Z,6.37
2019-03-22T02:55:18.364Z,6.03
2019-03-22T02:57:49.314Z,6.10
2019-03-22T03:00:20.405Z,5.80
2019-03-22T03:02:51.313Z,5.50
2019-03-22T03:05:22.895Z,5.13
2019-03-22T03:07:54.002Z,6.17
2019-03-22T03:10:24.978Z,6.73
2019-03-22T03:12:56.459Z,6.33
2019-03-22T03:15:27.573Z,6.50
2019-03-22T03:17:58.567Z,6.23
2019-03-22T03:20:29.569Z,6.57
2019-03-22T03:23:00.541Z,5.83
2019-03-22T03:25:31.523Z,6.20
2019-03-22T03:28:02.629Z,5.80
2019-03-22T03:30:34.064Z,5.47
2019-03-22T03:33:05.309Z,5.70
2019-03-22T03:35:36.326Z,6.10
2019-03-22T03:38:07.577Z,5.50
2019-03-22T03:40:38.595Z,5.60
2019-03-22T03:43:09.729Z,6.47
2019-03-22T03:45:40.745Z,5.93
2019-03-22T03:48:11.734Z,6.40
2019-03-22T03:50:42.663Z,6.53
2019-03-22T03:53:13.839Z,6.60
2019-03-22T03:55:44.857Z,6.63
2019-03-22T03:58:16.044Z,7.07
2019-03-22T04:00:47.133Z,6.40
2019-03-22T04:03:18.089Z,6.90
2019-03-22T04:05:49.081Z,6.77
2019-03-22T04:08:20.075Z,6.50
2019-03-22T04:10:50.972Z,6.73
2019-03-22T04:13:21.922Z,5.97
2019-03-22T04:15:52.963Z,6.17
2019-03-22T04:18:23.911Z,6.03
2019-03-22T04:20:54.763Z,5.83
2019-03-22T04:23:25.884Z,6.30
2019-03-22T04:25:56.833Z,5.83
2019-03-22T04:28:27.860Z,6.57
2019-03-22T04:30:58.924Z,6.53
2019-03-22T04:33:29.893Z,6.50
2019-03-22T04:36:00.769Z,8.47
2019-03-22T04:38:31.694Z,6.33
2019-03-22T04:41:02.550Z,6.63
2019-03-22T04:43:33.587Z,5.73
2019-03-22T04:46:05.292Z,5.63
2019-03-22T04:48:37.908Z,5.80
2019-03-22T04:51:10.192Z,5.90
2019-03-22T04:53:44.217Z,5.77
2019-03-22T04:56:18.653Z,5.30
2019-03-22T04:58:51.694Z,5.87
2019-03-22T05:01:24.563Z,5.80
2019-03-22T05:03:58.866Z,6.80
2019-03-22T05:06:29.885Z,5.47
2019-03-22T05:09:01.801Z,6.40
2019-03-22T05:11:33.239Z,7.13
2019-03-22T05:14:05.686Z,6.10
2019-03-22T05:16:42.737Z,5.43
2019-03-22T05:19:14.682Z,6.60
2019-03-22T05:21:46.787Z,6.90
2019-03-22T05:24:19.636Z,6.10
2019-03-22T05:26:51.732Z,6.17
2019-03-22T05:29:30.626Z,5.90
2019-03-22T05:32:04.701Z,5.23
2019-03-22T05:34:35.699Z,5.73
2019-03-22T05:37:06.743Z,5.60
2019-03-22T05:39:40.632Z,5.83
2019-03-22T05:42:14.805Z,5.40
2019-03-22T05:44:45.802Z,5.93
2019-03-22T05:47:19.245Z,5.27
2019-03-22T05:49:50.159Z,5.60
2019-03-22T05:52:22.763Z,6.20
2019-03-22T05:54:53.661Z,5.90
2019-03-22T05:57:24.635Z,5.33
2019-03-22T05:59:55.576Z,5.03
2019-03-22T06:02:26.535Z,5.03
2019-03-22T06:04:57.550Z,4.67
2019-03-22T06:07:31.068Z,5.07
2019-03-22T06:10:02.143Z,5.87
2019-03-22T06:12:33.095Z,5.70
2019-03-22T06:15:10.748Z,5.17
2019-03-22T06:17:51.133Z,5.77
2019-03-22T06:20:14.784Z,5.73
2019-03-22T06:22:45.781Z,6.03
2019-03-22T06:25:16.884Z,5.33
2019-03-22T06:27:47.824Z,6.07
2019-03-22T06:30:18.903Z,5.37
2019-03-22T06:32:49.861Z,5.80
2019-03-22T06:35:20.889Z,5.23
2019-03-22T06:37:51.803Z,5.40
2019-03-22T06:40:22.694Z,5.57
2019-03-22T06:42:53.665Z,5.00
2019-03-22T06:45:24.616Z,5.57
2019-03-22T06:47:55.686Z,5.77
2019-03-22T06:50:26.647Z,5.70
2019-03-22T06:52:57.481Z,5.30
2019-03-22T06:55:28.400Z,5.67
2019-03-22T06:57:59.348Z,5.93
2019-03-22T07:00:30.458Z,6.07
2019-03-22T07:03:02.025Z,5.63
2019-03-22T07:05:33.024Z,6.53
2019-03-22T07:08:04.085Z,6.30
2019-03-22T07:10:35.008Z,5.87
2019-03-22T07:13:06.242Z,6.40
2019-03-22T07:15:37.215Z,5.80
2019-03-22T07:18:08.068Z,5.93
2019-03-22T07:20:38.944Z,6.37
2019-03-22T07:23:09.896Z,7.07
2019-03-22T07:25:40.824Z,6.13
2019-03-22T07:28:11.818Z,6.70
2019-03-22T07:30:43.005Z,6.80
2019-03-22T07:33:13.978Z,6.33
2019-03-22T07:35:45.096Z,6.20
2019-03-22T07:38:16.068Z,6.30
2019-03-22T07:40:47.103Z,6.30
2019-03-22T07:43:17.990Z,5.80
2019-03-22T07:45:49.154Z,6.07
2019-03-22T07:48:20.071Z,6.57
2019-03-22T07:50:51.096Z,6.00
2019-03-22T07:53:22.410Z,6.87
2019-03-22T07:55:53.446Z,7.53
2019-03-22T07:58:24.609Z,7.30
2019-03-22T08:00:55.605Z,7.67
2019-03-22T08:03:26.754Z,7.73
2019-03-22T08:05:57.692Z,8.20
2019-03-22T08:08:28.779Z,8.40
2019-03-22T08:10:59.660Z,7.90
2019-03-22T08:13:30.620Z,7.33
2019-03-22T08:16:01.670Z,7.07
2019-03-22T08:18:32.681Z,8.30
2019-03-22T08:21:03.696Z,8.40
2019-03-22T08:23:34.751Z,8.57
2019-03-22T08:26:05.782Z,8.63
2019-03-22T08:28:36.742Z,8.33
2019-03-22T08:31:08.166Z,30.40
2019-03-22T08:33:39.213Z,9.93
2019-03-22T08:36:10.300Z,9.73
2019-03-22T08:38:41.263Z,9.03
2019-03-22T08:41:12.243Z,9.20
2019-03-22T08:43:43.409Z,9.20
2019-03-22T08:46:14.384Z,10.40
2019-03-22T08:48:45.786Z,13.83
2019-03-22T08:51:16.710Z,10.63
2019-03-22T08:53:55.114Z,9.37
2019-03-22T08:56:20.466Z,13.00
2019-03-22T08:58:51.449Z,9.77
2019-03-22T09:01:22.500Z,9.23
2019-03-22T09:03:53.699Z,8.10
2019-03-22T09:06:24.684Z,8.70
2019-03-22T09:08:55.891Z,8.53
2019-03-22T09:11:27.158Z,8.07
2019-03-22T09:13:58.465Z,8.37
2019-03-22T09:16:30.816Z,7.37
2019-03-22T09:19:01.949Z,8.37
2019-03-22T09:21:32.886Z,7.77
2019-03-22T09:24:04.003Z,21.90
2019-03-22T09:26:47.119Z,11.27
2019-03-22T09:29:07.643Z,7.90
2019-03-22T09:31:38.716Z,8.63
2019-03-22T09:34:09.817Z,7.57
2019-03-22T09:36:40.856Z,7.87
2019-03-22T09:39:11.796Z,7.53
2019-03-22T09:41:42.956Z,7.90
2019-03-22T09:44:13.824Z,7.97
2019-03-22T09:46:44.852Z,8.10
2019-03-22T09:49:15.779Z,7.87
2019-03-22T09:51:46.905Z,7.37
2019-03-22T09:54:18.035Z,7.83
2019-03-22T09:56:49.009Z,7.33
2019-03-22T09:59:20.235Z,8.03
2019-03-22T10:01:51.330Z,7.53
2019-03-22T10:04:22.342Z,7.53
2019-03-22T10:06:53.284Z,7.30
2019-03-22T10:09:24.283Z,7.00
2019-03-22T10:11:55.303Z,6.83
2019-03-22T10:14:26.236Z,7.37
2019-03-22T10:16:57.505Z,7.70
2019-03-22T10:19:28.481Z,6.80
2019-03-22T10:21:59.526Z,6.53
2019-03-22T10:24:30.425Z,8.43
2019-03-22T10:27:01.571Z,6.13
2019-03-22T10:29:33.137Z,6.77
2019-03-22T10:32:04.140Z,7.00
2019-03-22T10:34:35.030Z,6.63
2019-03-22T10:37:06.054Z,7.80
2019-03-22T10:39:36.987Z,6.57
2019-03-22T10:42:08.038Z,6.20
2019-03-22T10:44:39.551Z,6.60
2019-03-22T10:47:10.767Z,6.70
2019-03-22T10:49:42.256Z,5.90
2019-03-22T10:52:13.480Z,6.13
2019-03-22T10:54:44.520Z,5.67
2019-03-22T10:57:15.547Z,6.57
2019-03-22T10:59:46.654Z,6.17
2019-03-22T11:02:17.678Z,6.03
2019-03-22T11:04:48.647Z,6.27
2019-03-22T11:07:19.842Z,5.87
2019-03-22T11:09:50.842Z,7.33
2019-03-22T11:12:21.946Z,6.43
2019-03-22T11:14:52.893Z,5.93
2019-03-22T11:17:23.891Z,7.67
2019-03-22T11:20:01.339Z,5.83
2019-03-22T11:22:32.406Z,5.50
2019-03-22T11:25:04.950Z,5.60
2019-03-22T11:27:37.488Z,4.70
2019-03-22T11:30:12.207Z,4.00
2019-03-22T11:32:43.960Z,4.37
2019-03-22T11:35:15.162Z,4.70
2019-03-22T11:37:46.185Z,2.73
2019-03-22T11:40:20.495Z,5.00
2019-03-22T11:42:51.766Z,7.70
2019-03-22T11:45:24.686Z,2.30
2019-03-22T11:47:56.041Z,2.70
2019-03-22T11:50:31.340Z,4.10
2019-03-22T11:53:02.426Z,2.20
2019-03-22T11:55:33.794Z,1.87
2019-03-22T11:58:06.431Z,1.87
2019-03-22T12:00:37.665Z,2.23
2019-03-22T12:03:08.798Z,2.53
2019-03-22T12:05:44.562Z,2.20
2019-03-22T12:08:15.720Z,2.17
2019-03-22T12:10:46.918Z,2.30
2019-03-22T12:13:18.201Z,1.97
2019-03-22T12:15:49.281Z,2.17
2019-03-22T12:18:20.706Z,2.07
2019-03-22T12:20:52.464Z,2.20
2019-03-22T12:23:24.185Z,2.20
2019-03-22T12:25:57.572Z,4.60
2019-03-22T12:28:31.273Z,2.20
2019-03-22T12:31:02.531Z,2.20
2019-03-22T12:33:33.777Z,1.90
2019-03-22T12:36:04.965Z,1.90
2019-03-22T12:38:39.180Z,1.60
2019-03-22T12:41:10.634Z,1.80
2019-03-22T12:43:41.781Z,1.90
2019-03-22T12:46:12.992Z,1.60
2019-03-22T12:48:43.990Z,2.20
2019-03-22T12:51:15.173Z,3.27
2019-03-22T12:53:46.245Z,1.67
2019-03-22T12:56:17.318Z,2.20
2019-03-22T12:58:48.417Z,1.90
2019-03-22T13:01:19.467Z,2.95
2019-03-22T13:03:50.563Z,3.40
2019-03-22T13:06:22.011Z,2.90
2019-03-22T13:08:53.287Z,1.75
2019-03-22T13:11:24.388Z,1.30
2019-03-22T13:13:57.714Z,5.42
2019-03-22T13:16:31.715Z,2.00
2019-03-22T13:19:02.915Z,1.30
2019-03-22T13:21:34.002Z,1.37
2019-03-22T13:24:05.537Z,1.60
2019-03-22T13:26:36.587Z,3.27
2019-03-22T13:29:10.830Z,2.20
2019-03-22T13:31:41.914Z,1.47
2019-03-22T13:34:15.847Z,1.27
2019-03-22T13:36:48.559Z,1.40
2019-03-22T13:39:19.694Z,3.12
2019-03-22T13:41:51.781Z,1.35
2019-03-22T13:44:24.411Z,1.80
2019-03-22T13:46:56.932Z,1.35
2019-03-22T13:49:33.109Z,1.40
2019-03-22T13:52:07.070Z,1.12
2019-03-22T13:54:38.138Z,1.25
2019-03-22T13:57:11.099Z,1.17
2019-03-22T13:59:42.206Z,1.22
2019-03-22T14:02:13.190Z,1.60
2019-03-22T14:04:45.694Z,1.90
2019-03-22T14:07:17.032Z,2.17
2019-03-22T14:09:47.971Z,1.85
2019-03-22T14:12:19.016Z,1.22
2019-03-22T14:14:50.052Z,1.10
2019-03-22T14:17:25.507Z,1.37
2019-03-22T14:19:56.697Z,8.00
2019-03-22T14:22:27.974Z,1.20
2019-03-22T14:24:59.165Z,0.90
2019-03-22T14:27:30.336Z,1.60
2019-03-22T14:30:01.433Z,1.50
2019-03-22T14:32:32.492Z,1.20
2019-03-22T14:35:04.440Z,1.30
2019-03-22T14:37:35.493Z,1.17
2019-03-22T14:40:08.126Z,1.30
2019-03-22T14:42:39.208Z,1.30
2019-03-22T14:45:11.403Z,1.20
2019-03-22T14:47:42.824Z,1.70
2019-03-22T14:50:13.959Z,1.60
2019-03-22T14:52:45.061Z,1.70
2019-03-22T14:55:16.175Z,1.62
2019-03-22T14:57:49.326Z,1.50
2019-03-22T15:00:20.198Z,1.60
2019-03-22T15:02:51.422Z,1.98
2019-03-22T15:05:22.627Z,1.27
2019-03-22T15:07:54.010Z,1.60
2019-03-22T15:10:25.099Z,1.32
2019-03-22T15:12:56.079Z,1.20
2019-03-22T15:15:28.680Z,1.40
2019-03-22T15:18:04.436Z,2.83
2019-03-22T15:20:39.815Z,1.27
2019-03-22T15:23:24.962Z,1.77
2019-03-22T15:26:03.592Z,1.60
2019-03-22T15:28:48.345Z,1.30
2019-03-22T15:31:26.884Z,1.30
2019-03-22T15:33:59.971Z,1.25
2019-03-22T15:36:44.366Z,1.77
2019-03-22T15:39:24.100Z,1.32
2019-03-22T15:41:55.446Z,1.87
2019-03-22T15:44:26.493Z,1.50
2019-03-22T15:46:57.412Z,1.50
2019-03-22T15:49:28.304Z,1.20
2019-03-22T15:51:59.346Z,1.60
2019-03-22T15:54:30.270Z,2.03
2019-03-22T15:57:01.967Z,2.03
2019-03-22T15:59:32.985Z,1.70
2019-03-22T16:02:04.260Z,2.80
2019-03-22T16:04:35.286Z,1.77
2019-03-22T16:07:06.844Z,1.70
2019-03-22T16:09:37.766Z,1.30
2019-03-22T16:12:08.809Z,1.63
2019-03-22T16:14:39.734Z,1.50
2019-03-22T16:17:10.631Z,1.40
2019-03-22T16:19:41.732Z,1.80
2019-03-22T16:22:12.742Z,1.37
2019-03-22T16:24:43.813Z,1.90
2019-03-22T16:27:14.732Z,1.80
2019-03-22T16:29:49.918Z,1.50
2019-03-22T16:32:20.984Z,1.80
2019-03-22T16:34:52.180Z,1.50
2019-03-22T16:37:23.040Z,2.03
2019-03-22T16:40:01.188Z,1.67
2019-03-22T16:42:34.179Z,1.40
2019-03-22T16:45:09.263Z,1.40
2019-03-22T16:47:40.499Z,1.60
2019-03-22T16:50:21.264Z,1.27
2019-03-22T16:52:55.369Z,1.57
2019-03-22T16:55:28.082Z,1.20
2019-03-22T16:58:01.866Z,1.43
2019-03-22T17:00:32.943Z,1.07
2019-03-22T17:03:05.480Z,1.30
2019-03-22T17:05:36.638Z,1.33
2019-03-22T17:08:07.689Z,1.27
2019-03-22T17:10:42.259Z,1.30
2019-03-22T17:13:16.747Z,1.70
2019-03-22T17:15:47.798Z,1.40
2019-03-22T17:18:19.315Z,1.30
2019-03-22T17:20:50.661Z,1.10
2019-03-22T17:23:21.721Z,1.40
2019-03-22T17:25:52.747Z,1.90
2019-03-22T17:28:23.782Z,1.50
2019-03-22T17:30:54.851Z,1.73
2019-03-22T17:33:25.889Z,3.17
2019-03-22T17:35:57.212Z,1.70
2019-03-22T17:38:28.240Z,1.50
2019-03-22T17:40:59.574Z,2.03
2019-03-22T17:43:31.182Z,2.23
2019-03-22T17:46:02.380Z,2.00
2019-03-22T17:48:33.738Z,1.90
2019-03-22T17:51:04.846Z,2.30
2019-03-22T17:53:35.906Z,2.13
2019-03-22T17:56:06.871Z,2.10
2019-03-22T17:58:37.842Z,2.77
2019-03-22T18:01:08.992Z,2.30
2019-03-22T18:03:39.938Z,2.40
2019-03-22T18:06:10.924Z,2.77
2019-03-22T18:08:41.882Z,1.73
2019-03-22T18:11:13.060Z,2.23
2019-03-22T18:13:44.020Z,2.07
2019-03-22T18:16:15.065Z,2.60
2019-03-22T18:18:46.033Z,2.30
2019-03-22T18:21:16.962Z,2.83
2019-03-22T18:23:47.978Z,2.63
2019-03-22T18:26:19.440Z,3.00
2019-03-22T18:28:50.454Z,3.60
2019-03-22T18:31:23.097Z,3.10
2019-03-22T18:33:54.247Z,2.97
2019-03-22T18:36:25.751Z,2.77
2019-03-22T18:38:58.423Z,2.90
2019-03-22T18:41:29.355Z,2.83
2019-03-22T18:44:00.363Z,3.60
2019-03-22T18:46:31.334Z,3.67
2019-03-22T18:49:02.261Z,2.80
2019-03-22T18:51:33.328Z,3.70
2019-03-22T18:54:04.375Z,3.97
2019-03-22T18:56:35.327Z,3.37
2019-03-22T18:59:07.002Z,4.60
2019-03-22T19:01:37.931Z,5.40
2019-03-22T19:04:12.007Z,9.73
2019-03-22T19:06:42.988Z,6.53
2019-03-22T19:09:14.009Z,5.43
2019-03-22T19:11:44.997Z,5.10
2019-03-22T19:14:15.942Z,5.90
2019-03-22T19:16:47.020Z,6.07
2019-03-22T19:19:17.991Z,6.90
2019-03-22T19:21:49.298Z,6.20
2019-03-22T19:24:22.427Z,6.67
2019-03-22T19:26:53.761Z,6.77
2019-03-22T19:29:24.742Z,8.17
2019-03-22T19:31:55.751Z,18.43
2019-03-22T19:34:29.443Z,18.73
2019-03-22T19:37:00.334Z,10.97
2019-03-22T19:39:31.250Z,14.90
2019-03-22T19:42:02.265Z,8.47
2019-03-22T19:44:53.988Z,7.37
2019-03-22T19:47:25.170Z,6.93
2019-03-22T19:50:00.342Z,6.63
2019-03-22T19:52:31.602Z,5.90
2019-03-22T19:55:02.565Z,5.93
2019-03-22T19:57:33.977Z,5.50
2019-03-22T20:00:07.766Z,6.50
2019-03-22T20:02:40.594Z,5.50
2019-03-22T20:05:13.796Z,5.37
2019-03-22T20:07:44.917Z,5.77
2019-03-22T20:10:15.967Z,5.93
2019-03-22T20:12:52.705Z,6.23
2019-03-22T20:15:24.369Z,6.17
2019-03-22T20:17:56.782Z,6.10
2019-03-22T20:20:28.024Z,5.20
2019-03-22T20:23:02.364Z,7.03
2019-03-22T20:25:33.552Z,5.47
2019-03-22T20:28:04.632Z,5.83
2019-03-22T20:30:35.650Z,9.67
2019-03-22T20:33:07.041Z,7.73
2019-03-22T20:35:38.016Z,10.00
2019-03-22T20:38:10.081Z,6.30
2019-03-22T20:40:41.048Z,6.03
2019-03-22T20:43:12.017Z,6.23
2019-03-22T20:45:43.600Z,6.33
2019-03-22T20:48:14.830Z,6.60
2019-03-22T20:50:48.137Z,6.30
2019-03-22T20:53:22.523Z,6.47
2019-03-22T21:00:13.821Z,7.83
2019-03-22T21:02:46.012Z,9.67
2019-03-22T21:05:26.955Z,10.13
2019-03-22T21:07:51.776Z,10.33
2019-03-22T21:10:26.006Z,10.20
2019-03-22T21:13:03.680Z,8.63
2019-03-22T21:15:36.605Z,7.50
2019-03-22T21:18:07.945Z,8.00
2019-03-22T21:20:38.970Z,7.73
2019-03-22T21:23:11.517Z,9.60
2019-03-22T21:25:43.416Z,7.73
2019-03-22T21:28:15.148Z,7.80
2019-03-22T21:30:47.062Z,7.87
2019-03-22T21:33:19.108Z,10.13
2019-03-22T21:35:53.106Z,8.40
2019-03-22T21:38:32.503Z,8.43
2019-03-22T21:41:05.621Z,7.33
2019-03-22T21:43:36.627Z,7.33
2019-03-22T21:46:07.683Z,7.67
2019-03-22T21:48:38.830Z,7.13
2019-03-22T21:51:09.940Z,7.37
2019-03-22T21:53:41.003Z,6.63
2019-03-22T21:56:12.312Z,7.10
2019-03-22T22:01:39.951Z,6.43
2019-03-22T22:04:11.679Z,6.67
2019-03-22T22:06:42.655Z,6.40
2019-03-22T22:09:13.650Z,6.77
2019-03-22T22:11:53.382Z,6.80
2019-03-22T22:14:24.371Z,5.80
2019-03-22T22:17:04.821Z,6.50
2019-03-22T22:19:39.063Z,6.10
2019-03-22T22:22:09.960Z,6.03
2019-03-22T22:24:40.904Z,6.43
2019-03-22T22:27:15.493Z,5.97
2019-03-22T22:29:47.593Z,6.80
2019-03-22T22:32:18.850Z,6.30
2019-03-22T22:34:49.830Z,5.33
2019-03-22T22:37:20.855Z,5.77
2019-03-22T22:39:55.430Z,6.03
2019-03-22T22:42:26.397Z,6.20
2019-03-22T22:44:59.200Z,6.00
2019-03-22T22:47:30.271Z,5.40
2019-03-22T22:50:01.361Z,5.97
2019-03-22T22:52:32.432Z,6.33
2019-03-22T22:55:03.375Z,5.87
2019-03-22T22:57:34.319Z,6.00
2019-03-22T23:00:16.785Z,6.00
2019-03-22T23:02:48.103Z,5.67
2019-03-22T23:05:19.069Z,5.43
2019-03-22T23:07:49.935Z,5.90
2019-03-22T23:10:20.818Z,6.90
2019-03-22T23:12:51.843Z,6.00
2019-03-22T23:15:22.869Z,6.40
2019-03-22T23:17:53.841Z,5.93
2019-03-22T23:20:24.807Z,6.00
2019-03-22T23:22:55.763Z,6.47
2019-03-22T23:25:26.668Z,6.13
2019-03-22T23:27:57.861Z,6.70
2019-03-22T23:30:28.891Z,7.67
2019-03-22T23:33:00.133Z,7.40
2019-03-22T23:35:31.266Z,7.13
2019-03-22T23:38:02.303Z,6.00
2019-03-22T23:40:33.202Z,7.77
2019-03-22T23:43:04.152Z,6.10
2019-03-22T23:45:35.311Z,6.23
2019-03-22T23:48:06.272Z,6.83
2019-03-22T23:50:37.418Z,7.43
2019-03-22T23:53:08.280Z,6.80
2019-03-22T23:55:39.255Z,7.73
2019-03-22T23:58:10.200Z,7.93
